sensor_id;sensor_type;location;lat;lon;timestamp;P1;durP1;ratioP1;P2;durP2;ratioP2
11090;SDS011;5599;52.210;21.046;2023-12-20T00:02:03;11.80;;;10.37;;
11090;SDS011;5599;52.210;21.046;2023-12-20T00:04:34;11.57;;;10.27;;
11090;SDS011;5599;52.210;21.046;2023-12-20T00:07:03;12.83;;;10.87;;
11090;SDS011;5599;52.210;21.046;2023-12-20T00:09:33;11.47;;;9.93;;
11090;SDS011;5599;52.210;21.046;2023-12-20T00:12:02;12.17;;;10.87;;
11090;SDS011;5599;52.210;21.046;2023-12-20T00:14:31;12.37;;;11.03;;
11090;SDS011;5599;52.210;21.046;2023-12-20T00:17:00;11.67;;;10.47;;
11090;SDS011;5599;52.210;21.046;2023-12-20T00:19:29;11.63;;;9.93;;
11090;SDS011;5599;52.210;21.046;2023-12-20T00:22:00;10.93;;;9.53;;
11090;SDS011;5599;52.210;21.046;2023-12-20T00:24:29;11.53;;;10.43;;
11090;SDS011;5599;52.210;21.046;2023-12-20T00:26:58;11.60;;;10.40;;
11090;SDS011;5599;52.210;21.046;2023-12-20T00:29:28;11.43;;;9.83;;
11090;SDS011;5599;52.210;21.046;2023-12-20T00:31:57;10.97;;;9.87;;
11090;SDS011;5599;52.210;21.046;2023-12-20T00:34:26;10.90;;;9.83;;
11090;SDS011;5599;52.210;21.046;2023-12-20T00:36:55;10.13;;;9.13;;
11090;SDS011;5599;52.210;21.046;2023-12-20T00:39:26;10.20;;;9.03;;
11090;SDS011;5599;52.210;21.046;2023-12-20T00:41:55;10.47;;;9.37;;
11090;SDS011;5599;52.210;21.046;2023-12-20T00:44:24;11.47;;;8.93;;
11090;SDS011;5599;52.210;21.046;2023-12-20T00:46:53;10.73;;;8.77;;
11090;SDS011;5599;52.210;21.046;2023-12-20T00:49:23;10.20;;;9.20;;
11090;SDS011;5599;52.210;21.046;2023-12-20T00:51:52;10.30;;;9.30;;
11090;SDS011;5599;52.210;21.046;2023-12-20T00:54:21;10.13;;;9.03;;
11090;SDS011;5599;52.210;21.046;2023-12-20T00:56:52;10.17;;;9.17;;
11090;SDS011;5599;52.210;21.046;2023-12-20T00:59:21;9.53;;;8.53;;
11090;SDS011;5599;52.210;21.046;2023-12-20T01:01:50;9.87;;;8.63;;
11090;SDS011;5599;52.210;21.046;2023-12-20T01:04:19;10.80;;;9.40;;
11090;SDS011;5599;52.210;21.046;2023-12-20T01:06:49;9.17;;;8.30;;
11090;SDS011;5599;52.210;21.046;2023-12-20T01:09:18;10.17;;;8.83;;
11090;SDS011;5599;52.210;21.046;2023-12-20T01:11:51;10.13;;;9.10;;
11090;SDS011;5599;52.210;21.046;2023-12-20T01:14:20;9.43;;;8.43;;
11090;SDS011;5599;52.210;21.046;2023-12-20T01:16:50;9.73;;;8.73;;
11090;SDS011;5599;52.210;21.046;2023-12-20T01:19:19;9.37;;;8.37;;
11090;SDS011;5599;52.210;21.046;2023-12-20T01:21:48;9.43;;;8.53;;
11090;SDS011;5599;52.210;21.046;2023-12-20T01:24:17;9.20;;;8.13;;
11090;SDS011;5599;52.210;21.046;2023-12-20T01:26:46;9.47;;;8.53;;
11090;SDS011;5599;52.210;21.046;2023-12-20T01:29:17;9.77;;;8.77;;
11090;SDS011;5599;52.210;21.046;2023-12-20T01:31:46;8.93;;;8.03;;
11090;SDS011;5599;52.210;21.046;2023-12-20T01:34:15;9.67;;;8.23;;
11090;SDS011;5599;52.210;21.046;2023-12-20T01:36:45;9.80;;;7.83;;
11090;SDS011;5599;52.210;21.046;2023-12-20T01:39:14;8.57;;;7.77;;
11090;SDS011;5599;52.210;21.046;2023-12-20T01:41:54;8.93;;;8.03;;
11090;SDS011;5599;52.210;21.046;2023-12-20T01:44:24;8.87;;;8.03;;
11090;SDS011;5599;52.210;21.046;2023-12-20T01:46:54;11.17;;;8.20;;
11090;SDS011;5599;52.210;21.046;2023-12-20T01:49:23;8.30;;;7.60;;
11090;SDS011;5599;52.210;21.046;2023-12-20T01:51:53;9.13;;;8.23;;
11090;SDS011;5599;52.210;21.046;2023-12-20T01:54:22;8.17;;;7.37;;
11090;SDS011;5599;52.210;21.046;2023-12-20T01:56:51;9.20;;;8.30;;
11090;SDS011;5599;52.210;21.046;2023-12-20T01:59:20;11.80;;;8.77;;
11090;SDS011;5599;52.210;21.046;2023-12-20T02:01:51;8.63;;;7.73;;
11090;SDS011;5599;52.210;21.046;2023-12-20T02:04:20;8.67;;;7.77;;
11090;SDS011;5599;52.210;21.046;2023-12-20T02:06:50;8.67;;;7.77;;
11090;SDS011;5599;52.210;21.046;2023-12-20T02:09:21;8.50;;;7.67;;
11090;SDS011;5599;52.210;21.046;2023-12-20T02:11:51;8.77;;;7.87;;
11090;SDS011;5599;52.210;21.046;2023-12-20T02:14:20;9.17;;;8.27;;
11090;SDS011;5599;52.210;21.046;2023-12-20T02:16:49;8.13;;;7.43;;
11090;SDS011;5599;52.210;21.046;2023-12-20T02:19:20;10.83;;;7.97;;
11090;SDS011;5599;52.210;21.046;2023-12-20T02:21:51;8.70;;;7.90;;
11090;SDS011;5599;52.210;21.046;2023-12-20T02:24:34;9.13;;;8.23;;
11090;SDS011;5599;52.210;21.046;2023-12-20T02:27:04;7.67;;;6.97;;
11090;SDS011;5599;52.210;21.046;2023-12-20T02:29:35;7.50;;;6.80;;
11090;SDS011;5599;52.210;21.046;2023-12-20T02:32:05;7.53;;;6.70;;
11090;SDS011;5599;52.210;21.046;2023-12-20T02:34:34;8.07;;;7.27;;
11090;SDS011;5599;52.210;21.046;2023-12-20T02:37:05;7.40;;;6.73;;
11090;SDS011;5599;52.210;21.046;2023-12-20T02:39:34;7.53;;;6.83;;
11090;SDS011;5599;52.210;21.046;2023-12-20T02:42:03;7.67;;;6.97;;
11090;SDS011;5599;52.210;21.046;2023-12-20T02:44:33;7.13;;;6.43;;
11090;SDS011;5599;52.210;21.046;2023-12-20T02:47:02;7.00;;;6.30;;
11090;SDS011;5599;52.210;21.046;2023-12-20T02:49:31;6.40;;;5.80;;
11090;SDS011;5599;52.210;21.046;2023-12-20T02:52:00;7.97;;;5.33;;
11090;SDS011;5599;52.210;21.046;2023-12-20T02:54:30;5.70;;;5.10;;
11090;SDS011;5599;52.210;21.046;2023-12-20T02:56:59;5.67;;;5.17;;
11090;SDS011;5599;52.210;21.046;2023-12-20T02:59:28;6.13;;;4.83;;
11090;SDS011;5599;52.210;21.046;2023-12-20T03:01:57;5.00;;;4.57;;
11090;SDS011;5599;52.210;21.046;2023-12-20T03:04:26;4.40;;;4.00;;
11090;SDS011;5599;52.210;21.046;2023-12-20T03:06:55;4.50;;;4.10;;
11090;SDS011;5599;52.210;21.046;2023-12-20T03:09:24;5.10;;;4.50;;
11090;SDS011;5599;52.210;21.046;2023-12-20T03:11:58;4.80;;;3.97;;
11090;SDS011;5599;52.210;21.046;2023-12-20T03:14:27;3.90;;;3.57;;
11090;SDS011;5599;52.210;21.046;2023-12-20T03:16:56;4.20;;;3.80;;
11090;SDS011;5599;52.210;21.046;2023-12-20T03:19:26;3.83;;;3.53;;
11090;SDS011;5599;52.210;21.046;2023-12-20T03:21:56;4.10;;;3.60;;
11090;SDS011;5599;52.210;21.046;2023-12-20T03:24:27;3.90;;;3.40;;
11090;SDS011;5599;52.210;21.046;2023-12-20T03:26:58;3.40;;;3.10;;
11090;SDS011;5599;52.210;21.046;2023-12-20T03:29:27;3.57;;;3.27;;
11090;SDS011;5599;52.210;21.046;2023-12-20T03:31:56;3.10;;;2.80;;
11090;SDS011;5599;52.210;21.046;2023-12-20T03:34:25;3.97;;;3.60;;
11090;SDS011;5599;52.210;21.046;2023-12-20T03:36:56;2.80;;;2.50;;
11090;SDS011;5599;52.210;21.046;2023-12-20T03:39:25;3.40;;;3.10;;
11090;SDS011;5599;52.210;21.046;2023-12-20T03:41:54;3.10;;;2.90;;
11090;SDS011;5599;52.210;21.046;2023-12-20T03:44:24;3.50;;;3.20;;
11090;SDS011;5599;52.210;21.046;2023-12-20T03:46:53;3.77;;;3.00;;
11090;SDS011;5599;52.210;21.046;2023-12-20T03:49:22;3.13;;;2.83;;
11090;SDS011;5599;52.210;21.046;2023-12-20T03:51:51;3.23;;;2.93;;
11090;SDS011;5599;52.210;21.046;2023-12-20T03:54:20;3.50;;;3.20;;
11090;SDS011;5599;52.210;21.046;2023-12-20T03:56:49;3.87;;;3.37;;
11090;SDS011;5599;52.210;21.046;2023-12-20T03:59:18;3.93;;;3.30;;
11090;SDS011;5599;52.210;21.046;2023-12-20T04:01:49;3.53;;;3.23;;
11090;SDS011;5599;52.210;21.046;2023-12-20T04:04:18;3.70;;;3.40;;
11090;SDS011;5599;52.210;21.046;2023-12-20T04:06:47;4.07;;;3.67;;
11090;SDS011;5599;52.210;21.046;2023-12-20T04:09:16;4.00;;;3.60;;
11090;SDS011;5599;52.210;21.046;2023-12-20T04:11:45;4.10;;;3.70;;
11090;SDS011;5599;52.210;21.046;2023-12-20T04:14:14;4.53;;;4.13;;
11090;SDS011;5599;52.210;21.046;2023-12-20T04:16:43;4.70;;;4.20;;
11090;SDS011;5599;52.210;21.046;2023-12-20T04:19:15;4.40;;;4.00;;
11090;SDS011;5599;52.210;21.046;2023-12-20T04:21:44;4.53;;;4.13;;
11090;SDS011;5599;52.210;21.046;2023-12-20T04:24:13;4.57;;;4.17;;
11090;SDS011;5599;52.210;21.046;2023-12-20T04:26:42;5.40;;;4.30;;
11090;SDS011;5599;52.210;21.046;2023-12-20T04:29:11;5.47;;;4.97;;
11090;SDS011;5599;52.210;21.046;2023-12-20T04:31:40;5.77;;;5.17;;
11090;SDS011;5599;52.210;21.046;2023-12-20T04:34:09;6.13;;;5.27;;
11090;SDS011;5599;52.210;21.046;2023-12-20T04:36:40;6.07;;;5.47;;
11090;SDS011;5599;52.210;21.046;2023-12-20T04:39:10;6.30;;;5.70;;
11090;SDS011;5599;52.210;21.046;2023-12-20T04:41:39;6.40;;;5.80;;
11090;SDS011;5599;52.210;21.046;2023-12-20T04:44:08;6.53;;;5.93;;
11090;SDS011;5599;52.210;21.046;2023-12-20T04:46:37;7.00;;;6.30;;
11090;SDS011;5599;52.210;21.046;2023-12-20T04:49:06;7.33;;;6.63;;
11090;SDS011;5599;52.210;21.046;2023-12-20T04:51:35;6.57;;;5.97;;
11090;SDS011;5599;52.210;21.046;2023-12-20T04:54:07;7.07;;;6.37;;
11090;SDS011;5599;52.210;21.046;2023-12-20T04:56:37;6.50;;;5.90;;
11090;SDS011;5599;52.210;21.046;2023-12-20T04:59:07;6.50;;;5.90;;
11090;SDS011;5599;52.210;21.046;2023-12-20T05:01:36;6.30;;;5.73;;
11090;SDS011;5599;52.210;21.046;2023-12-20T05:04:05;6.93;;;6.23;;
11090;SDS011;5599;52.210;21.046;2023-12-20T05:06:34;6.57;;;5.97;;
11090;SDS011;5599;52.210;21.046;2023-12-20T05:09:04;6.17;;;5.67;;
11090;SDS011;5599;52.210;21.046;2023-12-20T05:11:35;7.73;;;6.00;;
11090;SDS011;5599;52.210;21.046;2023-12-20T05:14:04;6.97;;;6.37;;
11090;SDS011;5599;52.210;21.046;2023-12-20T05:16:33;7.27;;;6.57;;
11090;SDS011;5599;52.210;21.046;2023-12-20T05:19:02;7.40;;;6.70;;
11090;SDS011;5599;52.210;21.046;2023-12-20T05:21:33;7.20;;;6.60;;
11090;SDS011;5599;52.210;21.046;2023-12-20T05:24:03;7.47;;;6.70;;
11090;SDS011;5599;52.210;21.046;2023-12-20T05:26:32;7.30;;;6.60;;
11090;SDS011;5599;52.210;21.046;2023-12-20T05:29:03;8.00;;;7.30;;
11090;SDS011;5599;52.210;21.046;2023-12-20T05:31:32;7.83;;;6.97;;
11090;SDS011;5599;52.210;21.046;2023-12-20T05:34:01;7.53;;;6.83;;
11090;SDS011;5599;52.210;21.046;2023-12-20T05:36:30;7.47;;;6.77;;
11090;SDS011;5599;52.210;21.046;2023-12-20T05:38:59;7.13;;;6.53;;
11090;SDS011;5599;52.210;21.046;2023-12-20T05:41:28;7.60;;;7.00;;
11090;SDS011;5599;52.210;21.046;2023-12-20T05:43:59;8.67;;;7.73;;
11090;SDS011;5599;52.210;21.046;2023-12-20T05:46:28;8.63;;;7.83;;
11090;SDS011;5599;52.210;21.046;2023-12-20T05:48:57;9.10;;;7.37;;
11090;SDS011;5599;52.210;21.046;2023-12-20T05:51:26;7.63;;;6.93;;
11090;SDS011;5599;52.210;21.046;2023-12-20T05:53:55;8.17;;;7.40;;
11090;SDS011;5599;52.210;21.046;2023-12-20T05:56:24;7.77;;;7.07;;
11090;SDS011;5599;52.210;21.046;2023-12-20T05:58:54;7.80;;;7.10;;
11090;SDS011;5599;52.210;21.046;2023-12-20T06:01:25;7.57;;;6.90;;
11090;SDS011;5599;52.210;21.046;2023-12-20T06:03:54;9.13;;;8.33;;
11090;SDS011;5599;52.210;21.046;2023-12-20T06:06:23;8.70;;;7.77;;
11090;SDS011;5599;52.210;21.046;2023-12-20T06:08:52;8.20;;;7.50;;
11090;SDS011;5599;52.210;21.046;2023-12-20T06:11:21;8.03;;;7.33;;
11090;SDS011;5599;52.210;21.046;2023-12-20T06:13:50;8.37;;;7.57;;
11090;SDS011;5599;52.210;21.046;2023-12-20T06:16:20;8.23;;;7.40;;
11090;SDS011;5599;52.210;21.046;2023-12-20T06:18:50;8.77;;;7.97;;
11090;SDS011;5599;52.210;21.046;2023-12-20T06:21:20;7.70;;;7.00;;
11090;SDS011;5599;52.210;21.046;2023-12-20T06:23:49;9.10;;;7.00;;
11090;SDS011;5599;52.210;21.046;2023-12-20T06:26:18;8.43;;;7.72;;
11090;SDS011;5599;52.210;21.046;2023-12-20T06:28:47;7.63;;;6.93;;
11090;SDS011;5599;52.210;21.046;2023-12-20T06:31:16;8.60;;;7.80;;
11090;SDS011;5599;52.210;21.046;2023-12-20T06:33:45;8.00;;;7.30;;
11090;SDS011;5599;52.210;21.046;2023-12-20T06:36:17;8.27;;;7.47;;
11090;SDS011;5599;52.210;21.046;2023-12-20T06:38:46;8.63;;;7.83;;
11090;SDS011;5599;52.210;21.046;2023-12-20T06:41:15;9.27;;;8.27;;
11090;SDS011;5599;52.210;21.046;2023-12-20T06:43:44;9.43;;;8.63;;
11090;SDS011;5599;52.210;21.046;2023-12-20T06:46:16;10.17;;;9.17;;
11090;SDS011;5599;52.210;21.046;2023-12-20T06:48:46;10.30;;;9.27;;
11090;SDS011;5599;52.210;21.046;2023-12-20T06:51:16;9.80;;;8.90;;
11090;SDS011;5599;52.210;21.046;2023-12-20T06:53:46;10.43;;;9.47;;
11090;SDS011;5599;52.210;21.046;2023-12-20T06:56:15;10.43;;;9.43;;
11090;SDS011;5599;52.210;21.046;2023-12-20T06:58:45;9.97;;;9.03;;
11090;SDS011;5599;52.210;21.046;2023-12-20T07:01:15;10.07;;;9.03;;
11090;SDS011;5599;52.210;21.046;2023-12-20T07:03:45;9.30;;;8.23;;
11090;SDS011;5599;52.210;21.046;2023-12-20T07:06:14;9.37;;;8.57;;
11090;SDS011;5599;52.210;21.046;2023-12-20T07:08:45;9.13;;;8.23;;
11090;SDS011;5599;52.210;21.046;2023-12-20T07:11:14;9.33;;;8.30;;
11090;SDS011;5599;52.210;21.046;2023-12-20T07:13:43;8.87;;;7.97;;
11090;SDS011;5599;52.210;21.046;2023-12-20T07:16:13;9.30;;;8.40;;
11090;SDS011;5599;52.210;21.046;2023-12-20T07:18:42;10.73;;;8.77;;
11090;SDS011;5599;52.210;21.046;2023-12-20T07:21:11;11.33;;;8.83;;
11090;SDS011;5599;52.210;21.046;2023-12-20T07:23:41;9.43;;;8.53;;
11090;SDS011;5599;52.210;21.046;2023-12-20T07:26:11;9.07;;;8.27;;
11090;SDS011;5599;52.210;21.046;2023-12-20T07:28:40;9.03;;;8.23;;
11090;SDS011;5599;52.210;21.046;2023-12-20T07:31:09;11.97;;;8.77;;
11090;SDS011;5599;52.210;21.046;2023-12-20T07:33:39;13.30;;;8.83;;
11090;SDS011;5599;52.210;21.046;2023-12-20T07:36:08;9.10;;;8.17;;
11090;SDS011;5599;52.210;21.046;2023-12-20T07:38:38;12.27;;;8.43;;
11090;SDS011;5599;52.210;21.046;2023-12-20T07:41:10;9.40;;;8.50;;
11090;SDS011;5599;52.210;21.046;2023-12-20T07:43:40;8.93;;;8.10;;
11090;SDS011;5599;52.210;21.046;2023-12-20T07:46:09;8.97;;;8.13;;
11090;SDS011;5599;52.210;21.046;2023-12-20T07:48:38;8.70;;;7.87;;
11090;SDS011;5599;52.210;21.046;2023-12-20T07:51:12;8.90;;;8.10;;
11090;SDS011;5599;52.210;21.046;2023-12-20T07:53:41;8.57;;;7.60;;
11090;SDS011;5599;52.210;21.046;2023-12-20T07:56:14;7.83;;;7.13;;
11090;SDS011;5599;52.210;21.046;2023-12-20T07:58:44;7.63;;;6.90;;
11090;SDS011;5599;52.210;21.046;2023-12-20T08:01:19;8.60;;;7.03;;
11090;SDS011;5599;52.210;21.046;2023-12-20T08:03:49;6.77;;;6.10;;
11090;SDS011;5599;52.210;21.046;2023-12-20T08:06:19;7.90;;;7.17;;
11090;SDS011;5599;52.210;21.046;2023-12-20T08:08:48;7.27;;;6.57;;
11090;SDS011;5599;52.210;21.046;2023-12-20T08:11:29;7.57;;;6.73;;
11090;SDS011;5599;52.210;21.046;2023-12-20T08:13:58;8.10;;;7.30;;
11090;SDS011;5599;52.210;21.046;2023-12-20T08:16:27;7.23;;;6.53;;
11090;SDS011;5599;52.210;21.046;2023-12-20T08:18:57;7.83;;;6.40;;
11090;SDS011;5599;52.210;21.046;2023-12-20T08:21:26;6.90;;;6.30;;
11090;SDS011;5599;52.210;21.046;2023-12-20T08:23:55;7.70;;;7.00;;
11090;SDS011;5599;52.210;21.046;2023-12-20T08:26:24;8.27;;;7.47;;
11090;SDS011;5599;52.210;21.046;2023-12-20T08:28:55;7.20;;;6.50;;
11090;SDS011;5599;52.210;21.046;2023-12-20T08:31:27;7.90;;;6.20;;
11090;SDS011;5599;52.210;21.046;2023-12-20T08:33:56;7.73;;;6.53;;
11090;SDS011;5599;52.210;21.046;2023-12-20T08:36:26;7.93;;;7.10;;
11090;SDS011;5599;52.210;21.046;2023-12-20T08:38:55;7.97;;;7.17;;
11090;SDS011;5599;52.210;21.046;2023-12-20T08:41:24;7.80;;;7.17;;
11090;SDS011;5599;52.210;21.046;2023-12-20T08:43:56;8.30;;;7.13;;
11090;SDS011;5599;52.210;21.046;2023-12-20T08:46:25;7.03;;;6.40;;
11090;SDS011;5599;52.210;21.046;2023-12-20T08:48:54;7.23;;;6.53;;
11090;SDS011;5599;52.210;21.046;2023-12-20T08:51:24;7.07;;;6.37;;
11090;SDS011;5599;52.210;21.046;2023-12-20T08:53:53;7.23;;;6.63;;
11090;SDS011;5599;52.210;21.046;2023-12-20T08:56:22;8.13;;;6.20;;
11090;SDS011;5599;52.210;21.046;2023-12-20T08:58:51;7.07;;;6.40;;
11090;SDS011;5599;52.210;21.046;2023-12-20T09:01:22;6.47;;;5.87;;
11090;SDS011;5599;52.210;21.046;2023-12-20T09:03:51;5.90;;;5.30;;
11090;SDS011;5599;52.210;21.046;2023-12-20T09:06:21;5.43;;;4.93;;
11090;SDS011;5599;52.210;21.046;2023-12-20T09:08:51;6.23;;;5.63;;
11090;SDS011;5599;52.210;21.046;2023-12-20T09:11:20;5.37;;;4.87;;
11090;SDS011;5599;52.210;21.046;2023-12-20T09:13:49;8.07;;;5.73;;
11090;SDS011;5599;52.210;21.046;2023-12-20T09:16:19;6.90;;;5.43;;
11090;SDS011;5599;52.210;21.046;2023-12-20T09:18:49;5.83;;;5.33;;
11090;SDS011;5599;52.210;21.046;2023-12-20T09:21:19;5.07;;;4.67;;
11090;SDS011;5599;52.210;21.046;2023-12-20T09:23:49;8.03;;;5.47;;
11090;SDS011;5599;52.210;21.046;2023-12-20T09:26:18;5.57;;;5.07;;
11090;SDS011;5599;52.210;21.046;2023-12-20T09:28:48;7.83;;;4.87;;
11090;SDS011;5599;52.210;21.046;2023-12-20T09:31:17;6.40;;;5.80;;
11090;SDS011;5599;52.210;21.046;2023-12-20T09:33:46;5.50;;;5.03;;
11090;SDS011;5599;52.210;21.046;2023-12-20T09:36:17;5.50;;;5.10;;
11090;SDS011;5599;52.210;21.046;2023-12-20T09:38:46;5.10;;;4.70;;
11090;SDS011;5599;52.210;21.046;2023-12-20T09:41:15;5.50;;;5.00;;
11090;SDS011;5599;52.210;21.046;2023-12-20T09:43:44;5.83;;;5.23;;
11090;SDS011;5599;52.210;21.046;2023-12-20T09:46:13;6.20;;;4.33;;
11090;SDS011;5599;52.210;21.046;2023-12-20T09:48:49;5.60;;;5.10;;
11090;SDS011;5599;52.210;21.046;2023-12-20T09:51:22;7.23;;;4.77;;
11090;SDS011;5599;52.210;21.046;2023-12-20T09:53:52;5.60;;;5.10;;
11090;SDS011;5599;52.210;21.046;2023-12-20T09:56:24;6.17;;;5.10;;
11090;SDS011;5599;52.210;21.046;2023-12-20T09:58:54;5.70;;;5.13;;
11090;SDS011;5599;52.210;21.046;2023-12-20T10:01:24;6.23;;;5.60;;
11090;SDS011;5599;52.210;21.046;2023-12-20T10:03:54;5.13;;;4.63;;
11090;SDS011;5599;52.210;21.046;2023-12-20T10:06:27;5.20;;;4.70;;
11090;SDS011;5599;52.210;21.046;2023-12-20T10:08:57;5.20;;;4.63;;
11090;SDS011;5599;52.210;21.046;2023-12-20T10:11:27;5.87;;;5.17;;
11090;SDS011;5599;52.210;21.046;2023-12-20T10:13:58;5.87;;;5.10;;
11090;SDS011;5599;52.210;21.046;2023-12-20T10:16:29;6.10;;;5.43;;
11090;SDS011;5599;52.210;21.046;2023-12-20T10:19:00;5.40;;;4.90;;
11090;SDS011;5599;52.210;21.046;2023-12-20T10:21:30;7.33;;;5.47;;
11090;SDS011;5599;52.210;21.046;2023-12-20T10:24:00;6.40;;;5.57;;
11090;SDS011;5599;52.210;21.046;2023-12-20T10:26:31;6.90;;;5.57;;
11090;SDS011;5599;52.210;21.046;2023-12-20T10:29:01;8.30;;;5.37;;
11090;SDS011;5599;52.210;21.046;2023-12-20T10:31:32;7.00;;;5.73;;
11090;SDS011;5599;52.210;21.046;2023-12-20T10:34:02;7.93;;;5.67;;
11090;SDS011;5599;52.210;21.046;2023-12-20T10:36:33;5.57;;;5.07;;
11090;SDS011;5599;52.210;21.046;2023-12-20T10:39:03;6.47;;;5.13;;
11090;SDS011;5599;52.210;21.046;2023-12-20T10:41:36;6.17;;;5.63;;
11090;SDS011;5599;52.210;21.046;2023-12-20T10:44:08;6.37;;;5.87;;
11090;SDS011;5599;52.210;21.046;2023-12-20T10:46:39;5.43;;;4.93;;
11090;SDS011;5599;52.210;21.046;2023-12-20T10:49:14;6.03;;;5.27;;
11090;SDS011;5599;52.210;21.046;2023-12-20T10:51:45;9.70;;;5.40;;
11090;SDS011;5599;52.210;21.046;2023-12-20T10:54:15;5.60;;;4.90;;
11090;SDS011;5599;52.210;21.046;2023-12-20T10:56:45;5.43;;;4.93;;
11090;SDS011;5599;52.210;21.046;2023-12-20T10:59:14;5.37;;;4.87;;
11090;SDS011;5599;52.210;21.046;2023-12-20T11:01:49;6.10;;;5.50;;
11090;SDS011;5599;52.210;21.046;2023-12-20T11:04:20;6.90;;;5.40;;
11090;SDS011;5599;52.210;21.046;2023-12-20T11:06:53;5.53;;;5.03;;
11090;SDS011;5599;52.210;21.046;2023-12-20T11:09:28;5.90;;;5.40;;
11090;SDS011;5599;52.210;21.046;2023-12-20T11:12:02;5.90;;;5.30;;
11090;SDS011;5599;52.210;21.046;2023-12-20T11:14:39;5.67;;;5.17;;
11090;SDS011;5599;52.210;21.046;2023-12-20T11:17:11;5.90;;;5.30;;
11090;SDS011;5599;52.210;21.046;2023-12-20T11:22:39;5.73;;;5.07;;
11090;SDS011;5599;52.210;21.046;2023-12-20T11:25:20;5.63;;;5.13;;
11090;SDS011;5599;52.210;21.046;2023-12-20T11:30:40;5.27;;;4.77;;
11090;SDS011;5599;52.210;21.046;2023-12-20T11:33:10;4.50;;;4.10;;
11090;SDS011;5599;52.210;21.046;2023-12-20T11:35:41;5.67;;;5.00;;
11090;SDS011;5599;52.210;21.046;2023-12-20T11:38:12;6.37;;;5.07;;
11090;SDS011;5599;52.210;21.046;2023-12-20T11:40:42;5.50;;;5.00;;
11090;SDS011;5599;52.210;21.046;2023-12-20T11:43:12;5.27;;;4.80;;
11090;SDS011;5599;52.210;21.046;2023-12-20T11:46:02;6.33;;;4.70;;
11090;SDS011;5599;52.210;21.046;2023-12-20T11:48:34;5.37;;;4.67;;
11090;SDS011;5599;52.210;21.046;2023-12-20T11:51:08;5.83;;;5.33;;
11090;SDS011;5599;52.210;21.046;2023-12-20T11:53:40;5.23;;;4.77;;
11090;SDS011;5599;52.210;21.046;2023-12-20T11:56:10;5.20;;;4.70;;
11090;SDS011;5599;52.210;21.046;2023-12-20T11:58:39;6.83;;;6.07;;
11090;SDS011;5599;52.210;21.046;2023-12-20T12:01:09;5.83;;;5.33;;
11090;SDS011;5599;52.210;21.046;2023-12-20T12:03:39;6.17;;;5.40;;
11090;SDS011;5599;52.210;21.046;2023-12-20T12:06:10;7.33;;;6.73;;
11090;SDS011;5599;52.210;21.046;2023-12-20T12:08:41;8.53;;;7.53;;
11090;SDS011;5599;52.210;21.046;2023-12-20T12:11:11;7.53;;;6.83;;
11090;SDS011;5599;52.210;21.046;2023-12-20T12:13:40;6.10;;;5.13;;
11090;SDS011;5599;52.210;21.046;2023-12-20T12:16:09;7.43;;;6.60;;
11090;SDS011;5599;52.210;21.046;2023-12-20T12:18:39;7.23;;;6.00;;
11090;SDS011;5599;52.210;21.046;2023-12-20T12:21:09;6.80;;;6.10;;
11090;SDS011;5599;52.210;21.046;2023-12-20T12:23:46;6.23;;;5.63;;
11090;SDS011;5599;52.210;21.046;2023-12-20T12:26:16;6.93;;;6.30;;
11090;SDS011;5599;52.210;21.046;2023-12-20T12:28:46;7.60;;;6.90;;
11090;SDS011;5599;52.210;21.046;2023-12-20T12:31:15;6.83;;;6.10;;
11090;SDS011;5599;52.210;21.046;2023-12-20T12:33:44;7.37;;;6.67;;
11090;SDS011;5599;52.210;21.046;2023-12-20T12:36:15;7.97;;;6.53;;
11090;SDS011;5599;52.210;21.046;2023-12-20T12:38:46;6.20;;;5.70;;
11090;SDS011;5599;52.210;21.046;2023-12-20T12:41:15;6.90;;;5.80;;
11090;SDS011;5599;52.210;21.046;2023-12-20T12:43:45;6.57;;;5.97;;
11090;SDS011;5599;52.210;21.046;2023-12-20T12:46:14;7.03;;;6.33;;
11090;SDS011;5599;52.210;21.046;2023-12-20T12:48:45;6.63;;;5.77;;
11090;SDS011;5599;52.210;21.046;2023-12-20T12:51:15;6.70;;;6.00;;
11090;SDS011;5599;52.210;21.046;2023-12-20T12:53:47;7.37;;;6.67;;
11090;SDS011;5599;52.210;21.046;2023-12-20T12:56:16;7.97;;;7.00;;
11090;SDS011;5599;52.210;21.046;2023-12-20T12:58:46;8.83;;;7.10;;
11090;SDS011;5599;52.210;21.046;2023-12-20T13:01:15;8.27;;;7.47;;
11090;SDS011;5599;52.210;21.046;2023-12-20T13:03:44;8.77;;;7.97;;
11090;SDS011;5599;52.210;21.046;2023-12-20T13:06:13;8.60;;;7.70;;
11090;SDS011;5599;52.210;21.046;2023-12-20T13:08:43;10.13;;;7.83;;
11090;SDS011;5599;52.210;21.046;2023-12-20T13:11:14;9.00;;;8.10;;
11090;SDS011;5599;52.210;21.046;2023-12-20T13:13:44;8.10;;;7.30;;
11090;SDS011;5599;52.210;21.046;2023-12-20T13:16:13;8.93;;;8.03;;
11090;SDS011;5599;52.210;21.046;2023-12-20T13:18:43;9.13;;;7.07;;
11090;SDS011;5599;52.210;21.046;2023-12-20T13:21:12;7.90;;;7.10;;
11090;SDS011;5599;52.210;21.046;2023-12-20T13:23:41;8.10;;;7.30;;
11090;SDS011;5599;52.210;21.046;2023-12-20T13:26:10;7.53;;;6.83;;
11090;SDS011;5599;52.210;21.046;2023-12-20T13:28:41;7.70;;;7.00;;
11090;SDS011;5599;52.210;21.046;2023-12-20T13:31:10;8.30;;;6.80;;
11090;SDS011;5599;52.210;21.046;2023-12-20T13:33:39;8.80;;;7.80;;
11090;SDS011;5599;52.210;21.046;2023-12-20T13:36:09;12.77;;;7.47;;
11090;SDS011;5599;52.210;21.046;2023-12-20T13:38:38;10.23;;;7.40;;
11090;SDS011;5599;52.210;21.046;2023-12-20T13:41:07;7.10;;;6.40;;
11090;SDS011;5599;52.210;21.046;2023-12-20T13:43:37;7.87;;;7.00;;
11090;SDS011;5599;52.210;21.046;2023-12-20T13:46:08;7.10;;;6.40;;
11090;SDS011;5599;52.210;21.046;2023-12-20T13:48:37;7.27;;;6.43;;
11090;SDS011;5599;52.210;21.046;2023-12-20T13:51:06;9.80;;;7.47;;
11090;SDS011;5599;52.210;21.046;2023-12-20T13:53:35;6.93;;;6.23;;
11090;SDS011;5599;52.210;21.046;2023-12-20T13:56:05;8.60;;;6.80;;
11090;SDS011;5599;52.210;21.046;2023-12-20T13:58:35;7.93;;;6.57;;
11090;SDS011;5599;52.210;21.046;2023-12-20T14:01:04;9.70;;;6.63;;
11090;SDS011;5599;52.210;21.046;2023-12-20T14:03:35;8.00;;;6.77;;
11090;SDS011;5599;52.210;21.046;2023-12-20T14:06:05;7.30;;;6.50;;
11090;SDS011;5599;52.210;21.046;2023-12-20T14:08:34;6.80;;;6.10;;
11090;SDS011;5599;52.210;21.046;2023-12-20T14:11:04;8.57;;;6.93;;
11090;SDS011;5599;52.210;21.046;2023-12-20T14:13:33;8.30;;;6.50;;
11090;SDS011;5599;52.210;21.046;2023-12-20T14:16:02;8.07;;;6.30;;
11090;SDS011;5599;52.210;21.046;2023-12-20T14:18:32;9.63;;;5.97;;
11090;SDS011;5599;52.210;21.046;2023-12-20T14:21:02;9.37;;;6.70;;
11090;SDS011;5599;52.210;21.046;2023-12-20T14:23:33;6.67;;;6.00;;
11090;SDS011;5599;52.210;21.046;2023-12-20T14:26:02;7.57;;;6.13;;
11090;SDS011;5599;52.210;21.046;2023-12-20T14:28:32;9.47;;;7.20;;
11090;SDS011;5599;52.210;21.046;2023-12-20T14:31:01;7.53;;;6.67;;
11090;SDS011;5599;52.210;21.046;2023-12-20T14:33:32;7.70;;;7.00;;
11090;SDS011;5599;52.210;21.046;2023-12-20T14:36:04;7.27;;;6.50;;
11090;SDS011;5599;52.210;21.046;2023-12-20T14:38:33;6.87;;;6.27;;
11090;SDS011;5599;52.210;21.046;2023-12-20T14:41:04;8.87;;;6.43;;
11090;SDS011;5599;52.210;21.046;2023-12-20T14:43:36;6.77;;;6.13;;
11090;SDS011;5599;52.210;21.046;2023-12-20T14:46:05;9.60;;;5.60;;
11090;SDS011;5599;52.210;21.046;2023-12-20T14:48:34;8.60;;;6.23;;
11090;SDS011;5599;52.210;21.046;2023-12-20T14:51:06;5.63;;;5.03;;
11090;SDS011;5599;52.210;21.046;2023-12-20T14:53:35;5.93;;;5.17;;
11090;SDS011;5599;52.210;21.046;2023-12-20T14:56:05;7.20;;;5.13;;
11090;SDS011;5599;52.210;21.046;2023-12-20T14:58:40;8.70;;;5.63;;
11090;SDS011;5599;52.210;21.046;2023-12-20T15:01:10;6.67;;;5.00;;
11090;SDS011;5599;52.210;21.046;2023-12-20T15:03:41;6.83;;;5.20;;
11090;SDS011;5599;52.210;21.046;2023-12-20T15:06:11;6.50;;;4.23;;
11090;SDS011;5599;52.210;21.046;2023-12-20T15:08:41;7.23;;;4.23;;